Time;durP1;ratioP1;P1;durP2;ratioP2;P2;SDS_P1;SDS_P2;PMS_P1;PMS_P2;Temp;Humidity;BMP_temperature;BMP_pressure;BME280_temperature;BME280_humidity;BME280_pressure;Samples;Min_cycle;Max_cycle;Signal;HPM_P1;HPM_P2
2021/01/26 00:00:20;;;;;;;20.00;13.15;;;6.70;81.80;;;;;;5074651;28;20026;-48
2021/01/26 00:02:46;;;;;;;23.13;13.90;;;6.70;82.00;;;;;;5074962;28;20127;-48
2021/01/26 00:05:13;;;;;;;22.30;10.88;;;6.70;82.40;;;;;;5074800;28;20150;-47
2021/01/26 00:07:39;;;;;;;23.25;13.32;;;6.70;82.40;;;;;;5074959;28;20032;-48
2021/01/26 00:10:07;;;;;;;23.55;13.73;;;6.80;82.90;;;;;;5074678;28;20066;-47
2021/01/26 00:12:33;;;;;;;28.48;15.30;;;6.80;83.60;;;;;;5075727;28;20041;-47
2021/01/26 00:14:59;;;;;;;49.65;20.52;;;6.90;84.50;;;;;;5074674;28;20031;-47
2021/01/26 00:17:25;;;;;;;60.92;25.88;;;7.00;85.40;;;;;;5074820;28;20111;-48
2021/01/26 00:19:50;;;;;;;56.92;24.20;;;7.10;86.30;;;;;;5074979;28;20043;-47
2021/01/26 00:22:16;;;;;;;55.50;23.55;;;7.20;86.90;;;;;;5075140;28;20082;-47
2021/01/26 00:24:42;;;;;;;39.40;17.95;;;7.40;87.00;;;;;;5074611;28;20029;-50
2021/01/26 00:27:08;;;;;;;27.25;14.73;;;7.50;87.20;;;;;;5077930;28;20031;-47
2021/01/26 00:29:34;;;;;;;19.15;13.50;;;7.60;87.20;;;;;;5078357;28;20423;-48
2021/01/26 00:31:59;;;;;;;19.17;12.98;;;7.70;87.00;;;;;;5078408;28;20024;-46
2021/01/26 00:34:25;;;;;;;16.25;10.40;;;7.90;86.90;;;;;;5077764;28;20069;-49
2021/01/26 00:36:51;;;;;;;7.55;5.65;;;7.90;86.60;;;;;;5077703;28;20020;-48
2021/01/26 00:39:17;;;;;;;8.65;5.00;;;8.00;86.30;;;;;;5078030;28;20135;-47
2021/01/26 00:41:42;;;;;;;5.63;4.65;;;8.10;85.50;;;;;;5077755;28;20051;-47
2021/01/26 00:44:08;;;;;;;5.00;4.40;;;8.10;84.60;;;;;;5078414;28;20032;-47
2021/01/26 00:46:34;;;;;;;4.75;4.25;;;8.10;83.80;;;;;;5077879;28;20109;-48
2021/01/26 00:49:00;;;;;;;5.60;4.70;;;8.00;83.10;;;;;;5078015;28;20040;-47
2021/01/26 00:51:25;;;;;;;6.03;4.85;;;8.00;82.70;;;;;;5077818;28;20119;-49
2021/01/26 00:53:51;;;;;;;6.93;4.40;;;7.90;82.60;;;;;;5078306;28;20032;-47
2021/01/26 00:56:17;;;;;;;6.03;4.47;;;7.90;82.70;;;;;;5077493;28;20021;-48
2021/01/26 00:58:42;;;;;;;6.40;4.88;;;7.80;82.70;;;;;;5078574;28;20098;-47
2021/01/26 01:01:08;;;;;;;7.05;5.20;;;7.70;82.70;;;;;;5077886;28;20423;-49
2021/01/26 01:03:34;;;;;;;7.78;4.63;;;7.70;82.80;;;;;;5077793;28;20090;-51
2021/01/26 01:06:00;;;;;;;7.35;4.93;;;7.60;82.50;;;;;;5077646;28;20122;-50
2021/01/26 01:08:26;;;;;;;6.97;4.72;;;7.50;82.20;;;;;;5078144;28;20449;-47
2021/01/26 01:10:52;;;;;;;5.43;4.43;;;7.50;81.90;;;;;;5076975;28;20043;-48
2021/01/26 01:13:19;;;;;;;5.05;4.30;;;7.40;81.50;;;;;;5078254;28;20135;-47
2021/01/26 01:15:45;;;;;;;6.53;4.97;;;7.40;81.10;;;;;;5077214;28;20031;-46
2021/01/26 01:18:11;;;;;;;5.68;4.35;;;7.30;80.30;;;;;;5077778;28;20457;-46
2021/01/26 01:20:37;;;;;;;6.03;5.15;;;7.20;79.50;;;;;;5077219;28;20389;-47
2021/01/26 01:23:03;;;;;;;6.60;5.78;;;7.10;79.20;;;;;;5077331;28;20051;-48
2021/01/26 01:25:29;;;;;;;5.18;4.50;;;7.00;79.20;;;;;;5075848;28;20101;-48
2021/01/26 01:27:55;;;;;;;6.88;5.05;;;6.90;78.70;;;;;;5058286;28;20083;-49
2021/01/26 01:30:29;;;;;;;6.55;5.10;;;6.80;78.40;;;;;;5069824;28;20448;-49
2021/01/26 01:32:56;;;;;;;7.20;5.65;;;6.70;78.70;;;;;;5077642;28;20032;-48
2021/01/26 01:35:22;;;;;;;6.13;4.95;;;6.60;78.60;;;;;;5076826;28;20430;-48
2021/01/26 01:37:48;;;;;;;5.30;4.10;;;6.50;78.80;;;;;;5077470;28;20041;-49
2021/01/26 01:40:22;;;;;;;5.63;4.50;;;6.50;77.90;;;;;;5076684;28;20043;-49
2021/01/26 01:42:49;;;;;;;6.50;4.50;;;6.30;77.40;;;;;;5077316;28;20446;-49
2021/01/26 01:45:17;;;;;;;6.10;4.10;;;6.30;77.10;;;;;;5076449;28;20446;-50
2021/01/26 01:47:47;;;;;;;5.30;4.35;;;6.20;77.20;;;;;;5076751;28;20043;-48
2021/01/26 01:50:19;;;;;;;5.25;4.20;;;6.10;76.80;;;;;;5076921;28;20331;-49
2021/01/26 01:52:45;;;;;;;6.18;4.18;;;6.00;76.80;;;;;;5077385;28;20060;-49
2021/01/26 01:55:20;;;;;;;5.03;3.95;;;5.90;76.90;;;;;;5075805;28;20089;-49
2021/01/26 01:58:11;;;;;;;6.18;3.95;;;5.80;76.90;;;;;;5076965;28;20029;-49
2021/01/26 02:00:37;;;;;;;5.00;3.80;;;5.80;76.70;;;;;;5071875;28;20107;-49
2021/01/26 02:03:14;;;;;;;5.55;4.00;;;5.70;76.40;;;;;;5056791;28;20380;-49
2021/01/26 02:05:41;;;;;;;4.60;3.97;;;5.60;76.80;;;;;;5056409;28;20025;-49
2021/01/26 02:08:16;;;;;;;4.78;3.90;;;5.60;76.60;;;;;;5056938;28;20043;-48
2021/01/26 02:10:43;;;;;;;5.38;4.30;;;5.50;76.70;;;;;;5056218;28;20024;-49
2021/01/26 02:13:08;;;;;;;4.97;3.80;;;5.50;76.70;;;;;;5056495;28;20078;-49
2021/01/26 02:15:34;;;;;;;5.22;3.90;;;5.50;77.00;;;;;;5055943;28;20024;-52
2021/01/26 02:18:05;;;;;;;5.90;4.82;;;5.40;76.70;;;;;;5056420;28;20077;-49
2021/01/26 02:20:49;;;;;;;4.88;3.75;;;5.40;77.00;;;;;;5056240;28;20040;-48
2021/01/26 02:23:39;;;;;;;6.57;4.38;;;5.40;77.10;;;;;;5056720;28;20029;-50
2021/01/26 02:26:42;;;;;;;4.82;4.05;;;5.30;77.50;;;;;;5056138;28;20373;-48
2021/01/26 02:29:42;;;;;;;6.38;4.30;;;5.30;77.20;;;;;;5056765;28;20398;-50
2021/01/26 02:32:26;;;;;;;6.63;4.68;;;5.20;77.50;;;;;;5056154;28;20033;-50
2021/01/26 02:35:39;;;;;;;5.20;4.40;;;5.10;77.70;;;;;;5056213;28;20021;-49
2021/01/26 02:38:05;;;;;;;6.55;4.38;;;5.10;77.70;;;;;;5056989;28;20056;-50
2021/01/26 02:40:50;;;;;;;8.00;5.03;;;5.00;78.00;;;;;;5075864;28;20437;-51
2021/01/26 02:43:37;;;;;;;6.50;4.85;;;5.00;77.70;;;;;;5076586;28;20126;-49
2021/01/26 02:46:48;;;;;;;6.85;4.95;;;4.90;77.50;;;;;;5075121;28;20071;-49
2021/01/26 02:49:16;;;;;;;7.00;5.47;;;4.90;77.60;;;;;;5052546;28;20048;-49
2021/01/26 02:51:55;;;;;;;8.20;5.13;;;4.80;78.00;;;;;;5075703;28;20027;-51
2021/01/26 02:54:32;;;;;;;7.30;5.50;;;4.80;77.90;;;;;;5075254;28;20311;-49
2021/01/26 02:57:09;;;;;;;8.27;5.72;;;4.80;77.80;;;;;;5075111;28;20430;-48
2021/01/26 02:59:53;;;;;;;7.10;5.10;;;4.80;77.50;;;;;;5075659;28;20390;-48
2021/01/26 03:02:53;;;;;;;7.18;5.20;;;4.70;77.90;;;;;;5075715;28;20037;-49
2021/01/26 03:05:37;;;;;;;7.47;5.65;;;4.70;77.80;;;;;;5075196;28;20111;-48
2021/01/26 03:08:17;;;;;;;9.38;6.32;;;4.70;78.00;;;;;;5075781;28;20033;-49
2021/01/26 03:10:50;;;;;;;7.93;5.80;;;4.60;78.10;;;;;;5075461;28;20024;-49
2021/01/26 03:13:16;;;;;;;9.10;6.22;;;4.60;78.00;;;;;;5065970;28;20036;-49
2021/01/26 03:15:59;;;;;;;9.10;6.85;;;4.60;78.00;;;;;;5055026;28;20021;-49
2021/01/26 03:18:32;;;;;;;8.38;6.40;;;4.60;78.10;;;;;;5055617;28;20058;-48
2021/01/26 03:21:02;;;;;;;8.80;6.57;;;4.60;78.00;;;;;;5055452;28;20067;-50
2021/01/26 03:23:43;;;;;;;9.00;6.70;;;4.60;78.30;;;;;;5055567;28;20090;-50
2021/01/26 03:26:15;;;;;;;10.60;7.05;;;4.60;78.00;;;;;;5055143;28;20028;-48
2021/01/26 03:28:43;;;;;;;9.15;7.03;;;4.60;77.80;;;;;;5064604;28;20043;-49
2021/01/26 03:31:14;;;;;;;10.55;7.25;;;4.60;77.70;;;;;;5074776;28;20029;-49
2021/01/26 03:33:45;;;;;;;10.57;7.45;;;4.70;77.40;;;;;;5074760;28;20037;-50
2021/01/26 03:36:11;;;;;;;11.15;7.97;;;4.70;77.50;;;;;;5074790;28;20024;-50
2021/01/26 03:38:37;;;;;;;10.82;8.23;;;4.70;77.30;;;;;;5075527;28;20037;-49
2021/01/26 03:41:06;;;;;;;12.63;8.73;;;4.80;77.20;;;;;;5075177;28;20024;-49
2021/01/26 03:43:32;;;;;;;13.23;8.70;;;4.80;77.00;;;;;;5075887;28;20078;-50
2021/01/26 03:46:01;;;;;;;13.13;9.10;;;4.80;76.40;;;;;;5074224;28;20020;-49
2021/01/26 03:48:36;;;;;;;13.20;9.18;;;4.80;75.80;;;;;;5074686;28;20040;-49
2021/01/26 03:51:32;;;;;;;15.48;9.05;;;4.80;76.20;;;;;;5075000;28;20025;-49
2021/01/26 03:54:17;;;;;;;13.98;9.60;;;4.80;74.90;;;;;;5074961;28;20032;-51
2021/01/26 03:56:45;;;;;;;17.13;9.50;;;4.80;75.30;;;;;;5074815;28;20024;-49
2021/01/26 03:59:19;;;;;;;14.70;9.80;;;4.80;75.20;;;;;;5075631;28;20445;-49
2021/01/26 04:02:15;;;;;;;15.07;9.85;;;4.80;74.90;;;;;;5077382;28;20086;-49
2021/01/26 04:05:07;;;;;;;13.95;8.90;;;4.80;74.30;;;;;;5077026;28;20029;-49
2021/01/26 04:07:39;;;;;;;15.23;9.50;;;4.80;74.00;;;;;;5077355;28;20067;-49
2021/01/26 04:10:22;;;;;;;13.85;8.98;;;4.80;74.00;;;;;;5076903;28;20119;-48
2021/01/26 04:12:53;;;;;;;16.20;10.13;;;4.80;73.10;;;;;;5077230;28;20029;-50
2021/01/26 04:15:29;;;;;;;13.93;9.90;;;4.80;73.20;;;;;;5077223;28;20295;-48
2021/01/26 04:17:55;;;;;;;18.20;10.07;;;4.80;72.70;;;;;;5078603;28;20080;-48
2021/01/26 04:20:25;;;;;;;13.85;9.85;;;4.80;72.90;;;;;;5078286;28;20024;-49
2021/01/26 04:22:59;;;;;;;16.90;10.73;;;4.80;72.30;;;;;;5078426;28;20370;-48
2021/01/26 04:25:29;;;;;;;16.33;10.70;;;4.80;72.50;;;;;;5078344;28;20251;-50
2021/01/26 04:27:56;;;;;;;20.63;11.10;;;4.80;72.40;;;;;;5079005;28;20031;-52
2021/01/26 04:30:22;;;;;;;20.60;14.00;;;4.80;72.50;;;;;;5077892;28;20056;-48
2021/01/26 04:32:56;;;;;;;17.40;11.73;;;4.80;71.70;;;;;;5078854;28;20036;-48
2021/01/26 04:35:22;;;;;;;20.85;12.20;;;4.80;72.00;;;;;;5078271;28;20020;-48
2021/01/26 04:37:47;;;;;;;18.40;11.52;;;4.80;71.60;;;;;;5078259;28;20043;-48
2021/01/26 04:40:13;;;;;;;19.25;12.55;;;4.80;71.60;;;;;;5077529;28;20032;-50
2021/01/26 04:42:41;;;;;;;21.75;12.48;;;4.80;71.90;;;;;;5078612;28;20032;-51
2021/01/26 04:45:27;;;;;;;21.17;13.00;;;4.90;71.40;;;;;;5077472;28;20222;-49
2021/01/26 04:48:31;;;;;;;22.48;12.90;;;4.90;71.10;;;;;;5078434;28;20115;-48
2021/01/26 04:51:17;;;;;;;20.33;12.98;;;4.80;71.00;;;;;;5064676;28;20040;-50
2021/01/26 04:54:14;;;;;;;19.50;11.68;;;4.80;70.90;;;;;;5077973;28;20318;-49
2021/01/26 04:56:54;;;;;;;17.98;11.98;;;4.80;70.60;;;;;;5072833;28;20055;-48
2021/01/26 04:59:20;;;;;;;20.50;10.98;;;4.80;70.30;;;;;;5077692;28;20044;-49
2021/01/26 05:02:08;;;;;;;20.65;12.60;;;4.80;70.60;;;;;;5077958;28;20032;-50
2021/01/26 05:04:58;;;;;;;17.77;11.02;;;4.80;70.20;;;;;;5078048;28;20119;-50
2021/01/26 05:07:31;;;;;;;18.98;10.65;;;4.80;70.70;;;;;;5077690;28;20088;-49
2021/01/26 05:10:05;;;;;;;18.33;10.77;;;4.80;70.20;;;;;;5077639;28;20021;-52
2021/01/26 05:12:38;;;;;;;17.63;10.63;;;4.80;70.20;;;;;;5078187;28;20036;-49
2021/01/26 05:15:06;;;;;;;15.57;10.30;;;4.70;70.00;;;;;;5076727;28;20027;-49
2021/01/26 05:17:37;;;;;;;16.20;10.20;;;4.80;69.60;;;;;;5077789;28;20426;-50
2021/01/26 05:20:23;;;;;;;;;;;4.70;69.30;;;;;;5077842;28;20074;-49
2021/01/26 05:23:22;;;;;;;14.75;8.77;;;4.70;68.90;;;;;;5076768;28;20256;-49
2021/01/26 05:25:50;;;;;;;15.27;9.05;;;4.70;69.20;;;;;;5053480;28;20047;-50
2021/01/26 05:28:18;;;;;;;12.68;8.27;;;4.60;69.20;;;;;;5076048;28;20119;-49
2021/01/26 05:30:53;;;;;;;13.90;8.65;;;4.70;68.90;;;;;;5076960;28;20426;-49
2021/01/26 05:33:20;;;;;;;13.48;9.02;;;4.70;69.20;;;;;;5077195;28;20032;-49
2021/01/26 05:35:52;;;;;;;15.02;8.35;;;4.70;68.70;;;;;;5076691;28;20025;-51
2021/01/26 05:38:19;;;;;;;14.15;7.93;;;4.70;68.80;;;;;;5077215;28;20048;-49
2021/01/26 05:40:52;;;;;;;16.20;8.15;;;4.70;68.00;;;;;;5075794;28;20111;-52
2021/01/26 05:43:22;;;;;;;14.90;7.88;;;4.70;67.60;;;;;;5077436;28;20043;-51
2021/01/26 05:45:53;;;;;;;42.60;24.90;;;4.70;67.60;;;;;;5075498;28;20075;-50
2021/01/26 05:48:21;;;;;;;12.63;7.78;;;4.70;67.50;;;;;;5074198;28;20473;-50
2021/01/26 05:50:49;;;;;;;15.70;8.38;;;4.70;67.70;;;;;;5074991;28;20035;-51
2021/01/26 05:53:30;;;;;;;17.15;8.65;;;4.60;67.90;;;;;;5076006;28;20072;-49
2021/01/26 05:56:12;;;;;;;13.63;7.97;;;4.70;67.70;;;;;;5075398;28;20073;-49
2021/01/26 05:58:41;;;;;;;15.85;8.45;;;4.60;67.10;;;;;;5075862;28;20049;-49
2021/01/26 06:01:11;;;;;;;10.15;7.15;;;4.70;67.30;;;;;;5076066;28;20401;-49
2021/01/26 06:03:37;;;;;;;18.77;9.35;;;4.70;67.20;;;;;;5076637;28;20025;-51
2021/01/26 06:06:17;;;;;;;10.23;6.72;;;4.60;67.20;;;;;;5074631;28;20027;-51
2021/01/26 06:08:48;;;;;;;15.30;7.82;;;4.60;66.70;;;;;;5064863;28;20021;-50
2021/01/26 06:11:16;;;;;;;11.77;7.28;;;4.60;67.10;;;;;;5075501;28;20346;-48
2021/01/26 06:13:42;;;;;;;15.75;8.00;;;4.70;67.00;;;;;;5075647;28;20094;-51
2021/01/26 06:16:22;;;;;;;13.73;7.05;;;4.70;66.80;;;;;;5075675;28;20040;-49
2021/01/26 06:19:07;;;;;;;10.77;7.03;;;4.70;67.10;;;;;;5076069;28;20056;-49
2021/01/26 06:21:50;;;;;;;13.27;7.95;;;4.70;66.80;;;;;;5074248;28;20028;-50
2021/01/26 06:24:19;;;;;;;12.13;7.22;;;4.70;66.60;;;;;;5075302;28;20343;-49
2021/01/26 06:26:59;;;;;;;14.15;8.02;;;4.80;66.60;;;;;;5073838;28;20039;-51
2021/01/26 06:29:31;;;;;;;14.32;8.93;;;4.80;66.50;;;;;;5074743;28;20355;-49
2021/01/26 06:31:59;;;;;;;13.85;7.80;;;4.80;66.40;;;;;;5075783;28;20016;-50
2021/01/26 06:34:37;;;;;;;11.98;7.47;;;4.80;66.10;;;;;;5075424;28;20055;-49
2021/01/26 06:37:05;;;;;;;13.30;7.93;;;4.80;66.00;;;;;;5074387;28;20029;-49
2021/01/26 06:40:02;;;;;;;13.00;8.35;;;4.80;65.80;;;;;;5075112;28;20036;-53
2021/01/26 06:42:52;;;;;;;31.75;8.57;;;4.90;65.80;;;;;;5075619;28;20032;-49
2021/01/26 06:45:39;;;;;;;14.10;8.40;;;4.80;66.10;;;;;;5072103;28;20029;-49
2021/01/26 06:48:08;;;;;;;14.15;8.50;;;4.80;66.20;;;;;;5075216;28;20519;-50
2021/01/26 06:51:03;;;;;;;13.15;8.77;;;4.80;66.40;;;;;;5073475;28;20343;-53
2021/01/26 06:53:41;;;;;;;17.38;10.13;;;4.90;66.60;;;;;;5072865;28;20036;-49
2021/01/26 06:56:43;;;;;;;15.45;9.32;;;4.80;66.70;;;;;;5073781;28;20035;-49
2021/01/26 06:59:37;;;;;;;15.18;9.50;;;4.80;67.00;;;;;;5075109;28;20465;-51
2021/01/26 07:02:21;;;;;;;16.08;9.13;;;4.70;67.30;;;;;;5060947;28;20073;-50
2021/01/26 07:05:05;;;;;;;15.75;8.93;;;4.70;67.90;;;;;;5072155;28;20446;-52
2021/01/26 07:07:34;;;;;;;15.40;9.52;;;4.70;67.70;;;;;;5074843;28;20086;-52
2021/01/26 07:10:04;;;;;;;15.93;10.00;;;4.80;67.90;;;;;;5068920;28;20020;-50
2021/01/26 07:13:15;;;;;;;15.73;9.60;;;4.80;68.10;;;;;;5072141;28;20029;-53
2021/01/26 07:16:08;;;;;;;15.98;9.45;;;4.80;67.90;;;;;;5070675;28;20028;-52
2021/01/26 07:18:37;;;;;;;13.35;8.60;;;4.90;67.90;;;;;;5071371;28;20535;-52
2021/01/26 07:21:37;;;;;;;13.35;8.63;;;4.80;67.70;;;;;;5072438;28;20028;-51
2021/01/26 07:24:16;;;;;;;13.65;8.65;;;4.80;67.50;;;;;;5067111;28;20127;-53
2021/01/26 07:27:10;;;;;;;17.15;9.85;;;4.80;67.50;;;;;;5071345;28;20064;-52
2021/01/26 07:29:43;;;;;;;13.65;9.05;;;4.80;67.80;;;;;;5074529;28;20032;-56
2021/01/26 07:32:43;;;;;;;16.27;9.38;;;4.80;68.00;;;;;;5072473;28;20086;-52
2021/01/26 07:35:23;;;;;;;12.98;8.52;;;4.80;68.20;;;;;;5076116;28;20036;-48
2021/01/26 07:38:00;;;;;;;13.30;8.97;;;4.80;67.80;;;;;;5076131;28;20020;-50
2021/01/26 07:40:43;;;;;;;19.02;10.57;;;4.80;67.60;;;;;;5078007;28;20261;-52
2021/01/26 07:43:42;;;;;;;16.70;9.82;;;4.80;67.90;;;;;;5078897;28;20360;-51
2021/01/26 07:46:37;;;;;;;12.38;7.75;;;4.80;67.60;;;;;;5068937;28;20041;-47
2021/01/26 07:49:18;;;;;;;19.73;13.98;;;4.80;67.40;;;;;;5079661;28;20032;-47
2021/01/26 07:51:46;;;;;;;;;;;4.80;67.70;;;;;;5078276;28;20020;-53
2021/01/26 07:54:20;;;;;;;16.10;9.65;;;4.70;67.80;;;;;;5094693;28;19912;-49
2021/01/26 07:56:47;;;;;;;16.20;9.50;;;4.70;67.80;;;;;;5076597;28;20028;-51
2021/01/26 07:59:24;;;;;;;12.23;8.48;;;4.70;67.80;;;;;;5077588;28;20086;-53
2021/01/26 08:02:00;;;;;;;13.75;8.27;;;4.80;67.20;;;;;;5076172;28;20013;-53
2021/01/26 08:04:37;;;;;;;27.13;11.65;;;4.70;67.10;;;;;;5076425;28;20032;-52
2021/01/26 08:07:05;;;;;;;21.10;11.35;;;4.80;67.30;;;;;;5061213;28;20024;-53
2021/01/26 08:09:47;;;;;;;15.50;9.57;;;4.80;67.10;;;;;;5059959;28;20029;-51
2021/01/26 08:12:30;;;;;;;13.00;8.73;;;4.80;67.10;;;;;;5075156;28;20044;-53
2021/01/26 08:15:28;;;;;;;14.85;9.18;;;4.90;67.40;;;;;;5076348;28;20036;-52
2021/01/26 08:17:56;;;;;;;11.60;7.75;;;4.90;66.90;;;;;;5078144;28;20109;-53
2021/01/26 08:20:34;;;;;;;14.43;9.10;;;4.90;66.70;;;;;;5074838;28;20115;-52
2021/01/26 08:23:08;;;;;;;13.73;8.57;;;4.90;66.40;;;;;;5059966;28;20141;-49
2021/01/26 08:25:43;;;;;;;12.80;7.82;;;4.90;66.40;;;;;;5075187;28;20024;-49
2021/01/26 08:28:41;;;;;;;13.57;8.40;;;4.90;66.10;;;;;;5076105;28;20033;-51
2021/01/26 08:31:30;;;;;;;13.95;8.35;;;4.90;66.20;;;;;;5077456;28;20021;-48
2021/01/26 08:34:25;;;;;;;12.60;8.07;;;4.90;66.60;;;;;;5057412;28;20056;-48
2021/01/26 08:37:24;;;;;;;12.30;7.68;;;5.00;66.70;;;;;;5056877;28;20116;-49
2021/01/26 08:39:50;;;;;;;11.80;7.78;;;5.00;66.40;;;;;;5053676;28;20086;-50
2021/01/26 08:42:55;;;;;;;12.43;7.68;;;5.00;66.30;;;;;;5073194;28;20031;-49
2021/01/26 08:45:25;;;;;;;20.02;10.27;;;5.00;66.40;;;;;;5077426;28;20024;-49
2021/01/26 08:47:54;;;;;;;14.23;8.48;;;5.00;66.70;;;;;;5073987;28;20024;-51
2021/01/26 08:50:23;;;;;;;11.55;7.40;;;5.00;67.00;;;;;;5068761;28;20669;-51
2021/01/26 08:52:50;;;;;;;11.82;7.72;;;5.10;66.90;;;;;;5071433;28;20020;-49
2021/01/26 08:55:37;;;;;;;11.07;7.30;;;5.10;66.70;;;;;;5075745;28;20025;-53
2021/01/26 08:58:07;;;;;;;12.23;7.03;;;5.20;66.30;;;;;;5075863;28;20035;-50
2021/01/26 09:00:49;;;;;;;11.73;7.35;;;5.20;66.30;;;;;;5075628;28;20051;-52
2021/01/26 09:03:35;;;;;;;12.02;7.40;;;5.20;66.70;;;;;;5075953;28;20060;-52
2021/01/26 09:06:05;;;;;;;13.25;7.25;;;5.30;66.30;;;;;;5074611;28;20020;-49
2021/01/26 09:08:47;;;;;;;10.67;7.37;;;5.30;66.30;;;;;;5075222;28;20056;-52
2021/01/26 09:11:18;;;;;;;11.57;7.75;;;5.30;66.00;;;;;;5075542;28;20044;-49
2021/01/26 09:13:46;;;;;;;12.40;7.13;;;5.30;66.00;;;;;;5076338;28;20160;-48
2021/01/26 09:16:25;;;;;;;16.02;7.80;;;5.30;65.30;;;;;;5075541;28;20024;-49
2021/01/26 09:19:14;;;;;;;16.10;8.02;;;5.30;65.50;;;;;;5074637;28;20055;-49
2021/01/26 09:21:39;;;;;;;10.75;6.95;;;5.30;65.70;;;;;;5074736;28;20434;-51
2021/01/26 09:24:06;;;;;;;16.10;7.35;;;5.40;65.20;;;;;;5076712;28;20025;-51
2021/01/26 09:26:31;;;;;;;9.07;6.00;;;5.40;65.50;;;;;;5076167;28;20029;-52
2021/01/26 09:28:59;;;;;;;10.82;6.28;;;5.50;64.90;;;;;;5077700;28;20059;-53
2021/01/26 09:31:29;;;;;;;10.38;6.97;;;5.50;65.00;;;;;;5075923;28;20024;-50
2021/01/26 09:34:05;;;;;;;11.18;6.43;;;5.60;64.70;;;;;;5075921;28;20035;-52
2021/01/26 09:36:39;;;;;;;15.23;7.45;;;5.70;63.70;;;;;;5056102;28;20091;-49
2021/01/26 09:39:11;;;;;;;9.70;5.75;;;5.70;64.30;;;;;;5062216;28;20063;-48
2021/01/26 09:41:38;;;;;;;9.02;5.85;;;5.80;63.40;;;;;;5076383;28;20024;-52
2021/01/26 09:44:18;;;;;;;9.75;5.47;;;5.80;63.40;;;;;;5056706;28;20058;-49
2021/01/26 09:46:50;;;;;;;9.00;6.28;;;5.80;63.00;;;;;;5054248;28;20132;-49
2021/01/26 09:49:23;;;;;;;10.88;5.50;;;5.90;63.30;;;;;;5056086;28;20036;-51
2021/01/26 09:51:52;;;;;;;10.68;5.78;;;5.90;62.70;;;;;;5066208;28;20024;-52
2021/01/26 09:54:26;;;;;;;10.00;6.03;;;5.90;62.80;;;;;;5077262;28;20037;-51
2021/01/26 09:56:53;;;;;;;7.60;5.32;;;5.90;62.90;;;;;;5075158;28;20026;-48
2021/01/26 09:59:20;;;;;;;8.77;5.55;;;5.90;62.80;;;;;;5074854;28;20046;-48
2021/01/26 10:01:47;;;;;;;11.25;5.93;;;6.00;62.40;;;;;;5075340;28;20504;-47
2021/01/26 10:04:14;;;;;;;11.10;6.78;;;6.00;62.50;;;;;;5076540;28;20328;-48
2021/01/26 10:06:40;;;;;;;9.57;6.43;;;6.00;62.10;;;;;;5075365;28;20017;-48
2021/01/26 10:09:26;;;;;;;14.02;7.03;;;6.00;62.10;;;;;;5076400;28;20036;-47
2021/01/26 10:11:54;;;;;;;9.32;5.90;;;6.10;62.20;;;;;;5075234;28;20120;-47
2021/01/26 10:14:25;;;;;;;11.90;6.50;;;6.10;62.10;;;;;;5074796;28;20052;-49
2021/01/26 10:16:56;;;;;;;12.90;6.55;;;6.20;62.00;;;;;;5074515;28;20029;-48
2021/01/26 10:19:33;;;;;;;7.97;5.55;;;6.20;61.90;;;;;;5073072;28;20397;-47
2021/01/26 10:22:13;;;;;;;8.38;5.03;;;6.20;61.30;;;;;;5065545;28;20032;-48
2021/01/26 10:24:39;;;;;;;8.27;5.53;;;6.30;61.20;;;;;;5073872;28;20041;-47
2021/01/26 10:27:09;;;;;;;13.45;5.05;;;6.30;61.20;;;;;;5074346;28;20024;-48
2021/01/26 10:29:43;;;;;;;7.68;5.60;;;6.30;60.90;;;;;;5074726;28;20028;-52
2021/01/26 10:32:13;;;;;;;10.20;5.38;;;6.30;61.00;;;;;;5075191;28;20020;-51
2021/01/26 10:34:46;;;;;;;23.15;14.68;;;6.30;60.20;;;;;;5088772;28;20412;-49
2021/01/26 10:37:11;;;;;;;12.68;5.80;;;6.30;60.50;;;;;;5072841;28;20031;-50
2021/01/26 10:39:37;;;;;;;19.83;9.73;;;6.30;60.90;;;;;;5074464;28;20040;-51
2021/01/26 10:42:17;;;;;;;13.93;7.47;;;6.30;61.50;;;;;;5075079;28;20024;-51
2021/01/26 10:44:51;;;;;;;10.93;6.15;;;6.40;61.40;;;;;;5075089;28;20024;-50
2021/01/26 10:47:39;;;;;;;11.30;6.28;;;6.40;60.60;;;;;;5073715;28;20041;-47
2021/01/26 10:50:25;;;;;;;12.13;6.40;;;6.50;60.20;;;;;;5076280;28;20024;-47
2021/01/26 10:52:52;;;;;;;12.15;6.97;;;6.50;60.60;;;;;;5074033;28;20443;-47
2021/01/26 10:55:20;;;;;;;11.88;7.07;;;6.50;60.30;;;;;;5073849;28;20029;-49
2021/01/26 10:57:47;;;;;;;10.07;6.20;;;6.50;60.20;;;;;;5074761;28;20032;-46
2021/01/26 11:00:17;;;;;;;13.32;6.93;;;6.50;60.40;;;;;;5075054;28;20042;-49
2021/01/26 11:02:43;;;;;;;11.67;7.60;;;6.50;60.40;;;;;;5074026;28;20760;-50
2021/01/26 11:05:11;;;;;;;12.77;7.30;;;6.50;60.60;;;;;;5073855;28;20107;-51
2021/01/26 11:07:38;;;;;;;12.80;6.72;;;6.50;60.90;;;;;;5073584;28;20029;-49
2021/01/26 11:10:05;;;;;;;14.13;7.57;;;6.60;60.40;;;;;;5073272;28;20107;-49
2021/01/26 11:12:30;;;;;;;11.18;6.60;;;6.60;60.10;;;;;;5064834;28;20375;-50
2021/01/26 11:14:56;;;;;;;9.98;5.93;;;6.60;60.50;;;;;;5073418;28;20127;-57
2021/01/26 11:17:23;;;;;;;12.10;6.05;;;6.60;59.60;;;;;;5069905;28;20048;-53
2021/01/26 11:19:50;;;;;;;12.38;7.18;;;6.60;60.00;;;;;;5067423;28;20064;-51
2021/01/26 11:22:16;;;;;;;8.75;6.18;;;6.60;60.20;;;;;;5071825;28;20024;-54
2021/01/26 11:24:43;;;;;;;12.35;7.10;;;6.60;60.40;;;;;;5073191;28;20036;-51
2021/01/26 11:27:09;;;;;;;10.45;6.75;;;6.70;60.60;;;;;;5072426;28;20051;-51
2021/01/26 11:29:36;;;;;;;11.68;6.90;;;6.70;60.10;;;;;;5073959;28;20111;-51
2021/01/26 11:32:02;;;;;;;10.77;6.85;;;6.70;59.60;;;;;;5069956;28;20020;-51
2021/01/26 11:34:28;;;;;;;16.20;9.35;;;6.70;59.50;;;;;;5053106;28;20643;-53
2021/01/26 11:36:54;;;;;;;17.35;8.00;;;6.80;60.10;;;;;;5062369;28;20021;-54
2021/01/26 11:39:20;;;;;;;9.45;5.53;;;6.80;60.50;;;;;;5072095;28;20032;-55
2021/01/26 11:41:46;;;;;;;10.25;6.05;;;6.80;60.40;;;;;;5072973;28;20025;-54
2021/01/26 11:44:12;;;;;;;22.35;9.77;;;6.80;59.30;;;;;;5073941;28;20024;-54
2021/01/26 11:46:38;;;;;;;24.52;7.35;;;6.80;59.80;;;;;;5072423;28;20370;-54
2021/01/26 11:49:03;;;;;;;11.38;6.03;;;6.80;59.80;;;;;;5073841;28;20060;-52
2021/01/26 11:51:29;;;;;;;15.27;8.07;;;6.90;59.70;;;;;;5074482;28;20103;-53
2021/01/26 11:53:56;;;;;;;15.40;7.72;;;6.90;59.50;;;;;;5072187;28;20472;-52
2021/01/26 11:56:23;;;;;;;12.07;6.68;;;6.90;59.10;;;;;;5073597;28;20086;-53
2021/01/26 11:58:50;;;;;;;11.27;6.15;;;6.90;59.00;;;;;;5071665;28;20075;-52
2021/01/26 12:01:17;;;;;;;12.93;6.55;;;6.90;59.00;;;;;;5072327;28;20131;-49
2021/01/26 12:03:44;;;;;;;13.25;5.95;;;6.90;59.00;;;;;;5072375;28;20085;-47
2021/01/26 12:06:10;;;;;;;9.00;5.13;;;6.90;58.70;;;;;;5065876;28;20458;-47
2021/01/26 12:08:38;;;;;;;8.13;4.80;;;6.90;58.30;;;;;;5073378;28;20450;-46
2021/01/26 12:11:06;;;;;;;10.82;6.18;;;6.90;58.30;;;;;;5073784;28;20090;-53
2021/01/26 12:13:34;;;;;;;11.15;5.90;;;6.90;58.40;;;;;;5067649;28;20025;-52
2021/01/26 12:16:01;;;;;;;11.38;6.75;;;6.90;58.80;;;;;;5064828;28;20035;-53
2021/01/26 12:18:27;;;;;;;8.57;5.30;;;6.90;58.50;;;;;;5069963;28;20057;-49
2021/01/26 12:20:54;;;;;;;11.27;6.95;;;6.90;58.40;;;;;;5073540;28;20036;-51
2021/01/26 12:23:20;;;;;;;10.20;5.45;;;6.90;58.50;;;;;;5073503;28;20066;-53
2021/01/26 12:25:46;;;;;;;9.02;5.68;;;6.90;58.40;;;;;;5072794;28;20047;-52
2021/01/26 12:28:12;;;;;;;10.02;6.15;;;6.90;58.10;;;;;;5075163;28;20017;-53
2021/01/26 12:30:38;;;;;;;14.70;6.53;;;6.90;58.50;;;;;;5072311;28;20033;-50
2021/01/26 12:33:05;;;;;;;11.02;6.35;;;6.90;59.30;;;;;;5088140;28;20411;-50
2021/01/26 12:35:34;;;;;;;11.45;6.78;;;6.90;58.80;;;;;;5071247;28;20036;-50
2021/01/26 12:38:00;;;;;;;11.23;6.72;;;6.90;58.40;;;;;;5073996;28;20020;-52
2021/01/26 12:40:27;;;;;;;9.82;5.85;;;6.90;58.50;;;;;;5076957;28;20450;-52
2021/01/26 12:42:53;;;;;;;9.25;5.80;;;6.90;58.10;;;;;;5076928;28;20106;-51
2021/01/26 12:45:21;;;;;;;11.02;5.47;;;6.80;58.00;;;;;;5076837;28;20052;-51
2021/01/26 12:47:47;;;;;;;10.27;6.70;;;6.80;58.20;;;;;;5076386;28;20024;-52
2021/01/26 12:50:18;;;;;;;11.70;6.72;;;6.80;58.20;;;;;;5077003;28;20035;-51
2021/01/26 12:52:44;;;;;;;10.80;6.25;;;6.80;58.00;;;;;;5075942;28;20040;-50
2021/01/26 12:55:10;;;;;;;12.77;6.03;;;6.70;57.80;;;;;;5075930;28;20050;-52
2021/01/26 12:57:36;;;;;;;11.40;6.53;;;6.70;58.00;;;;;;5076557;28;20051;-51
2021/01/26 13:00:05;;;;;;;10.38;6.18;;;6.70;58.20;;;;;;5075556;28;20044;-51
2021/01/26 13:02:31;;;;;;;8.55;4.97;;;6.70;57.90;;;;;;5077289;28;20024;-49
2021/01/26 13:04:57;;;;;;;9.23;5.57;;;6.60;57.80;;;;;;5076324;28;20180;-50
2021/01/26 13:07:23;;;;;;;10.80;5.57;;;6.60;58.00;;;;;;5076435;28;20067;-48
2021/01/26 13:09:49;;;;;;;12.18;5.90;;;6.60;58.30;;;;;;5076623;28;20035;-49
2021/01/26 13:12:15;;;;;;;16.83;8.65;;;6.60;58.70;;;;;;5073351;28;20074;-52
2021/01/26 13:14:41;;;;;;;21.13;8.75;;;6.50;58.40;;;;;;5068934;28;20052;-52
2021/01/26 13:17:07;;;;;;;10.27;6.03;;;6.50;58.60;;;;;;5066764;28;20032;-51
2021/01/26 13:19:33;;;;;;;17.27;7.30;;;6.50;59.20;;;;;;5076953;28;20049;-50